createdAt,value
2018-11-13T00:00:34.192Z,10.10
2018-11-13T00:03:03.970Z,10.10
2018-11-13T00:05:33.638Z,10.10
2018-11-13T00:08:03.333Z,10.10
2018-11-13T00:10:33.081Z,10.10
2018-11-13T00:13:02.792Z,10.10
2018-11-13T00:15:32.651Z,10.10
2018-11-13T00:18:02.319Z,10.20
2018-11-13T00:20:32.021Z,10.10
2018-11-13T00:23:01.707Z,10.10
2018-11-13T00:25:31.416Z,10.10
2018-11-13T00:28:01.155Z,10.10
2018-11-13T00:30:30.876Z,10.10
2018-11-13T00:33:00.643Z,10.10
2018-11-13T00:35:30.445Z,10.10
2018-11-13T00:38:00.149Z,10.10
2018-11-13T00:40:29.962Z,10.10
2018-11-13T00:42:59.680Z,10.10
2018-11-13T00:45:29.467Z,10.10
2018-11-13T00:47:59.193Z,10.10
2018-11-13T00:50:28.880Z,10.10
2018-11-13T00:52:58.715Z,10.10
2018-11-13T00:55:28.414Z,10.10
2018-11-13T00:57:58.191Z,10.10
2018-11-13T01:00:27.976Z,10.00
2018-11-13T01:02:57.797Z,10.00
2018-11-13T01:05:27.629Z,10.00
2018-11-13T01:07:57.318Z,10.00
2018-11-13T01:10:27.043Z,10.00
2018-11-13T01:12:56.732Z,10.00
2018-11-13T01:15:26.469Z,10.00
2018-11-13T01:17:56.188Z,10.00
2018-11-13T01:20:25.860Z,10.00
2018-11-13T01:22:55.640Z,10.00
2018-11-13T01:25:25.377Z,10.00
2018-11-13T01:27:55.117Z,10.00
2018-11-13T01:30:24.816Z,10.00
2018-11-13T01:32:54.520Z,10.00
2018-11-13T01:35:24.231Z,10.00
2018-11-13T01:37:54.004Z,10.00
2018-11-13T01:40:23.739Z,10.00
2018-11-13T01:42:53.549Z,10.10
2018-11-13T01:45:23.240Z,10.10
2018-11-13T01:47:52.965Z,10.10
2018-11-13T01:50:22.703Z,10.00
2018-11-13T01:52:52.453Z,10.00
2018-11-13T01:55:22.406Z,10.00
2018-11-13T01:57:51.969Z,10.00
2018-11-13T02:00:22.732Z,10.00
2018-11-13T02:02:53.613Z,10.00
2018-11-13T02:05:24.407Z,10.00
2018-11-13T02:07:54.615Z,9.90
2018-11-13T02:10:24.354Z,9.90
2018-11-13T02:12:54.100Z,9.90
2018-11-13T02:15:23.886Z,9.90
2018-11-13T02:17:53.591Z,9.90
2018-11-13T02:20:23.451Z,9.90
2018-11-13T02:22:53.200Z,9.80
2018-11-13T02:25:22.914Z,9.90
2018-11-13T02:27:52.697Z,9.90
2018-11-13T02:30:23.433Z,9.90
2018-11-13T02:32:53.177Z,9.90
2018-11-13T02:35:22.996Z,9.80
2018-11-13T02:37:52.793Z,9.80
2018-11-13T02:40:22.561Z,9.70
2018-11-13T02:42:52.335Z,9.70
2018-11-13T02:45:22.027Z,9.70
2018-11-13T02:47:51.777Z,9.70
2018-11-13T02:50:22.035Z,9.70
2018-11-13T02:52:51.755Z,9.70
2018-11-13T02:55:21.509Z,9.70
2018-11-13T02:57:51.221Z,9.70
2018-11-13T03:00:21.789Z,9.70
2018-11-13T03:02:51.598Z,9.60
2018-11-13T03:05:22.088Z,9.60
2018-11-13T03:07:51.793Z,9.60
2018-11-13T03:10:21.697Z,9.60
2018-11-13T03:12:51.424Z,9.50
2018-11-13T03:15:21.479Z,9.50
2018-11-13T03:17:51.237Z,9.50
2018-11-13T03:20:21.177Z,9.50
2018-11-13T03:22:51.100Z,9.50
2018-11-13T03:25:21.910Z,9.50
2018-11-13T03:27:51.606Z,9.50
2018-11-13T03:30:23.324Z,9.60
2018-11-13T03:32:53.356Z,9.60
2018-11-13T03:35:23.187Z,9.70
2018-11-13T03:37:53.006Z,9.80
2018-11-13T03:40:22.765Z,9.80
2018-11-13T03:42:52.553Z,9.80
2018-11-13T03:45:22.267Z,9.80
2018-11-13T03:47:51.958Z,9.80
2018-11-13T03:50:22.468Z,9.80
2018-11-13T03:52:52.178Z,9.80
2018-11-13T03:55:21.949Z,9.80
2018-11-13T03:57:51.799Z,9.90
2018-11-13T04:00:23.353Z,10.00
2018-11-13T04:02:53.118Z,10.00
2018-11-13T04:05:23.158Z,10.00
2018-11-13T04:07:53.904Z,10.00
2018-11-13T04:10:24.262Z,10.00
2018-11-13T04:12:54.072Z,10.00
2018-11-13T04:15:24.993Z,10.00
2018-11-13T04:17:54.889Z,9.90
2018-11-13T04:20:24.686Z,10.00
2018-11-13T04:22:54.408Z,10.00
2018-11-13T04:25:24.097Z,10.00
2018-11-13T04:27:53.799Z,10.00
2018-11-13T04:30:23.512Z,10.00
2018-11-13T04:32:53.223Z,10.00
2018-11-13T04:35:22.960Z,10.00
2018-11-13T04:37:52.695Z,10.00
2018-11-13T04:40:22.414Z,10.00
2018-11-13T04:42:53.298Z,10.00
2018-11-13T04:45:24.321Z,9.90
2018-11-13T04:47:53.986Z,9.90
2018-11-13T04:50:23.999Z,9.90
2018-11-13T04:52:53.747Z,9.90
2018-11-13T04:55:23.578Z,9.90
2018-11-13T04:57:53.249Z,9.90
2018-11-13T05:00:23.852Z,9.90
2018-11-13T05:02:53.613Z,10.00
2018-11-13T05:05:23.421Z,10.00
2018-11-13T05:07:54.253Z,10.00
2018-11-13T05:10:25.130Z,10.10
2018-11-13T05:12:54.793Z,10.10
2018-11-13T05:15:24.601Z,10.20
2018-11-13T05:17:54.294Z,10.20
2018-11-13T05:20:23.973Z,10.10
2018-11-13T05:22:53.657Z,10.10
2018-11-13T05:25:23.373Z,10.10
2018-11-13T05:27:53.007Z,10.10
2018-11-13T05:30:23.169Z,10.10
2018-11-13T05:32:52.893Z,10.00
2018-11-13T05:35:22.977Z,10.00
2018-11-13T05:37:53.697Z,10.00
2018-11-13T05:40:24.415Z,10.00
2018-11-13T05:42:54.158Z,10.00
2018-11-13T05:45:25.071Z,10.00
2018-11-13T05:47:54.733Z,9.90
2018-11-13T05:50:24.423Z,9.90
2018-11-13T05:52:54.796Z,9.80
2018-11-13T05:55:24.471Z,9.80
2018-11-13T05:57:54.248Z,9.80
2018-11-13T06:00:27.623Z,9.80
2018-11-13T06:02:57.317Z,9.80
2018-11-13T06:05:27.021Z,9.90
2018-11-13T06:07:56.791Z,9.90
2018-11-13T06:10:26.503Z,9.90
2018-11-13T06:12:56.136Z,9.90
2018-11-13T06:15:25.887Z,10.00
2018-11-13T06:17:55.531Z,10.00
2018-11-13T06:20:25.352Z,10.10
2018-11-13T06:22:55.057Z,10.20
2018-11-13T06:25:24.659Z,10.20
2018-11-13T06:27:54.328Z,10.20
2018-11-13T06:30:24.974Z,10.30
2018-11-13T06:32:54.713Z,10.30
2018-11-13T06:35:24.410Z,10.30
2018-11-13T06:37:54.789Z,10.40
2018-11-13T06:40:24.698Z,10.40
2018-11-13T06:42:54.635Z,10.40
2018-11-13T06:45:24.393Z,10.40
2018-11-13T06:47:54.449Z,10.30
2018-11-13T06:50:24.187Z,10.30
2018-11-13T06:52:53.905Z,10.30
2018-11-13T06:55:33.921Z,10.30
2018-11-13T06:58:04.021Z,10.30
2018-11-13T07:00:33.681Z,10.30
2018-11-13T07:03:03.390Z,10.30
2018-11-13T07:05:33.031Z,10.40
2018-11-13T07:08:02.789Z,10.40
2018-11-13T07:10:32.559Z,10.40
2018-11-13T07:13:02.226Z,10.40
2018-11-13T07:15:32.358Z,10.40
2018-11-13T07:18:03.313Z,10.40
2018-11-13T07:20:34.367Z,10.40
2018-11-13T07:23:04.084Z,10.40
2018-11-13T07:25:33.858Z,10.40
2018-11-13T07:28:03.438Z,10.40
2018-11-13T07:30:33.198Z,10.40
2018-11-13T07:33:02.904Z,10.50
2018-11-13T07:35:32.706Z,10.50
2018-11-13T07:38:02.425Z,10.50
2018-11-13T07:40:32.137Z,10.60
2018-11-13T07:43:01.801Z,10.60
2018-11-13T07:45:31.461Z,10.50
2018-11-13T07:48:01.073Z,10.50
2018-11-13T07:50:30.802Z,10.50
2018-11-13T07:53:00.495Z,10.40
2018-11-13T07:55:30.171Z,10.40
2018-11-13T07:57:59.877Z,10.40
2018-11-13T08:00:29.635Z,10.30
2018-11-13T08:03:09.093Z,10.30
2018-11-13T08:05:38.848Z,10.20
2018-11-13T08:08:08.513Z,10.20
2018-11-13T08:10:38.189Z,10.20
2018-11-13T08:13:08.060Z,10.20
2018-11-13T08:15:37.535Z,10.20
2018-11-13T08:18:07.190Z,10.30
2018-11-13T08:20:36.825Z,10.30
2018-11-13T08:23:06.650Z,10.40
2018-11-13T08:25:36.378Z,10.50
2018-11-13T08:28:06.338Z,10.50
2018-11-13T08:30:36.205Z,10.60
2018-11-13T08:33:06.392Z,10.80
2018-11-13T08:35:36.096Z,10.90
2018-11-13T08:38:06.570Z,11.00
2018-11-13T08:40:36.408Z,11.20
2018-11-13T08:43:06.295Z,11.30
2018-11-13T08:45:35.934Z,11.30
2018-11-13T08:48:05.792Z,11.40
2018-11-13T08:50:35.535Z,11.50
2018-11-13T08:53:05.721Z,11.50
2018-11-13T08:55:35.641Z,11.50
2018-11-13T08:58:05.521Z,11.50
2018-11-13T09:00:35.329Z,11.50
2018-11-13T09:03:05.028Z,11.60
2018-11-13T09:05:34.671Z,11.60
2018-11-13T09:08:04.276Z,11.60
2018-11-13T09:10:33.906Z,11.70
2018-11-13T09:13:03.508Z,11.80
2018-11-13T09:15:33.100Z,11.90
2018-11-13T09:18:02.660Z,11.90
2018-11-13T09:20:32.304Z,12.00
2018-11-13T09:23:02.016Z,12.00
2018-11-13T09:25:31.714Z,12.10
2018-11-13T09:28:01.352Z,12.20
2018-11-13T09:30:31.092Z,12.30
2018-11-13T09:33:01.014Z,12.30
2018-11-13T09:35:30.625Z,12.30
2018-11-13T09:38:00.300Z,12.30
2018-11-13T09:40:29.980Z,12.40
2018-11-13T09:42:59.878Z,12.50
2018-11-13T09:45:29.546Z,12.70
2018-11-13T09:47:59.617Z,12.90
2018-11-13T09:50:29.196Z,12.90
2018-11-13T09:52:58.869Z,12.80
2018-11-13T09:55:28.476Z,12.70
2018-11-13T09:57:58.033Z,12.70
2018-11-13T10:00:27.729Z,12.70
2018-11-13T10:02:59.417Z,12.60
2018-11-13T10:05:28.604Z,12.60
2018-11-13T10:07:58.266Z,12.50
2018-11-13T10:10:28.268Z,12.60
2018-11-13T10:12:57.726Z,12.60
2018-11-13T10:15:28.846Z,12.60
2018-11-13T10:18:00.949Z,12.60
2018-11-13T10:20:30.517Z,12.50
2018-11-13T10:23:00.296Z,12.40
2018-11-13T10:25:29.909Z,12.40
2018-11-13T10:28:01.107Z,12.40
2018-11-13T10:30:30.706Z,12.30
2018-11-13T10:33:00.379Z,12.20
2018-11-13T10:35:30.009Z,12.20
2018-11-13T10:37:59.630Z,12.10
2018-11-13T10:40:29.400Z,12.20
2018-11-13T10:42:58.906Z,12.20
2018-11-13T10:45:29.176Z,12.20
2018-11-13T10:47:58.832Z,12.20
2018-11-13T10:50:28.492Z,12.20
2018-11-13T10:52:58.064Z,12.20
2018-11-13T10:55:27.730Z,12.30
2018-11-13T10:57:57.393Z,12.50
2018-11-13T11:02:37.150Z,12.70
2018-11-13T11:05:09.578Z,12.80
2018-11-13T11:07:39.168Z,12.90
2018-11-13T11:10:09.066Z,12.90
2018-11-13T11:12:38.757Z,12.70
2018-11-13T11:15:08.918Z,12.80
2018-11-13T11:17:38.445Z,12.70
2018-11-13T11:20:10.073Z,12.60
2018-11-13T11:22:39.737Z,12.80
2018-11-13T11:25:10.597Z,12.80
2018-11-13T11:27:40.209Z,12.80
2018-11-13T11:30:12.164Z,12.70
2018-11-13T11:32:41.764Z,12.80
2018-11-13T11:35:11.501Z,12.90
2018-11-13T11:37:41.401Z,12.80
2018-11-13T11:40:11.886Z,12.60
2018-11-13T11:42:41.523Z,12.50
2018-11-13T11:45:12.906Z,12.30
2018-11-13T11:47:42.650Z,12.20
2018-11-13T11:50:13.324Z,12.20
2018-11-13T11:52:42.912Z,12.20
2018-11-13T11:55:13.181Z,12.30
2018-11-13T11:57:42.707Z,12.40
2018-11-13T12:00:16.482Z,12.60
2018-11-13T12:02:46.149Z,12.70
2018-11-13T12:05:16.088Z,12.80
2018-11-13T12:07:45.637Z,12.80
2018-11-13T12:10:15.274Z,12.90
2018-11-13T12:12:44.901Z,12.90
2018-11-13T12:15:14.623Z,12.90
2018-11-13T12:17:44.694Z,12.80
2018-11-13T12:20:15.268Z,12.70
2018-11-13T12:22:44.979Z,12.60
2018-11-13T12:25:17.093Z,12.60
2018-11-13T12:27:46.791Z,12.50
2018-11-13T12:30:18.032Z,12.40
2018-11-13T12:32:48.487Z,12.40
2018-11-13T12:35:19.088Z,12.40
2018-11-13T12:37:48.698Z,12.40
2018-11-13T12:40:20.288Z,12.50
2018-11-13T12:42:50.324Z,12.40
2018-11-13T12:45:20.383Z,12.30
2018-11-13T12:47:49.927Z,12.30
2018-11-13T12:50:20.255Z,12.20
2018-11-13T12:52:49.807Z,12.10
2018-11-13T12:55:20.670Z,12.10
2018-11-13T12:57:50.262Z,12.10
2018-11-13T13:00:25.445Z,12.00
2018-11-13T13:02:55.031Z,11.90
2018-11-13T13:05:24.686Z,11.90
2018-11-13T13:07:54.249Z,12.10
2018-11-13T13:10:23.811Z,12.20
2018-11-13T13:12:53.536Z,12.20
2018-11-13T13:15:23.171Z,12.30
2018-11-13T13:17:52.742Z,12.30
2018-11-13T13:20:23.799Z,12.30
2018-11-13T13:22:53.550Z,12.30
2018-11-13T13:25:23.991Z,12.30
2018-11-13T13:27:53.531Z,12.20
2018-11-13T13:30:24.424Z,12.20
2018-11-13T13:32:53.958Z,12.30
2018-11-13T13:36:02.525Z,12.30
2018-11-13T13:38:33.830Z,12.30
2018-11-13T13:41:04.173Z,12.40
2018-11-13T13:43:34.353Z,12.50
2018-11-13T13:46:03.950Z,12.40
2018-11-13T13:48:33.709Z,12.30
2018-11-13T13:51:03.257Z,12.30
2018-11-13T13:53:32.913Z,12.40
2018-11-13T13:56:02.488Z,12.40
2018-11-13T13:58:32.173Z,12.40
2018-11-13T14:01:01.879Z,12.40
2018-11-13T14:03:31.761Z,12.20
2018-11-13T14:06:01.332Z,12.00
2018-11-13T14:08:31.160Z,11.90
2018-11-13T14:11:00.972Z,11.70
2018-11-13T14:13:30.677Z,11.60
2018-11-13T14:16:01.414Z,11.50
2018-11-13T14:18:31.054Z,11.50
2018-11-13T14:21:00.806Z,11.40
2018-11-13T14:23:30.409Z,11.40
2018-11-13T14:26:00.241Z,11.40
2018-11-13T14:28:29.809Z,11.40
2018-11-13T14:30:59.454Z,11.30
2018-11-13T14:33:29.252Z,11.30
2018-11-13T14:35:58.794Z,11.30
2018-11-13T14:38:28.352Z,11.30
2018-11-13T14:40:58.032Z,11.30
2018-11-13T14:43:27.719Z,11.30
2018-11-13T14:45:57.208Z,11.40
2018-11-13T14:48:26.744Z,11.40
2018-11-13T14:50:57.936Z,11.40
2018-11-13T14:53:32.091Z,11.30
2018-11-13T14:56:01.638Z,11.20
2018-11-13T14:58:31.214Z,11.20
2018-11-13T15:01:00.826Z,11.10
2018-11-13T15:03:30.420Z,11.00
2018-11-13T15:05:59.970Z,11.00
2018-11-13T15:08:29.568Z,10.90
2018-11-13T15:10:59.151Z,10.80
2018-11-13T15:13:28.716Z,10.80
2018-11-13T15:15:58.333Z,10.80
2018-11-13T15:18:27.859Z,10.70
2018-11-13T15:20:57.449Z,10.60
2018-11-13T15:23:26.957Z,10.60
2018-11-13T15:25:56.795Z,10.60
2018-11-13T15:28:26.270Z,10.50
2018-11-13T15:30:55.779Z,10.40
2018-11-13T15:33:25.546Z,10.40
2018-11-13T15:35:55.123Z,10.40
2018-11-13T15:38:24.749Z,10.40
2018-11-13T15:40:54.416Z,10.30
2018-11-13T15:43:23.969Z,10.10
2018-11-13T15:45:55.351Z,10.10
2018-11-13T15:48:25.017Z,10.10
2018-11-13T15:50:54.650Z,10.00
2018-11-13T15:53:24.959Z,9.90
2018-11-13T15:55:54.562Z,9.90
2018-11-13T15:58:24.163Z,9.90
2018-11-13T16:00:54.449Z,9.90
2018-11-13T16:03:25.981Z,9.80
2018-11-13T16:05:56.108Z,9.80
2018-11-13T16:08:25.732Z,9.80
2018-11-13T16:10:55.260Z,9.80
2018-11-13T16:13:24.759Z,9.80
2018-11-13T16:15:54.346Z,9.90
2018-11-13T16:18:25.334Z,9.80
2018-11-13T16:20:54.949Z,9.80
2018-11-13T16:23:24.630Z,9.70
2018-11-13T16:25:54.330Z,9.70
2018-11-13T16:28:23.886Z,9.60
2018-11-13T16:30:53.629Z,9.60
2018-11-13T16:33:24.843Z,9.60
2018-11-13T16:35:54.452Z,9.60
2018-11-13T16:38:24.271Z,9.70
2018-11-13T16:40:54.006Z,9.80
2018-11-13T16:43:24.676Z,9.80
2018-11-13T16:45:54.251Z,9.80
2018-11-13T16:48:23.958Z,9.80
2018-11-13T16:50:53.464Z,9.80
2018-11-13T16:53:23.047Z,9.70
2018-11-13T16:55:56.770Z,9.70
2018-11-13T16:58:26.280Z,9.70
2018-11-13T17:00:56.000Z,9.80
2018-11-13T17:03:25.762Z,9.80
2018-11-13T17:05:55.318Z,9.80
2018-11-13T17:08:24.848Z,9.80
2018-11-13T17:10:54.393Z,9.90
2018-11-13T17:13:23.940Z,9.90
2018-11-13T17:15:53.554Z,9.90
2018-11-13T17:18:23.190Z,9.90
2018-11-13T17:20:52.820Z,9.90
2018-11-13T17:23:22.523Z,9.80
2018-11-13T17:25:52.220Z,9.80
2018-11-13T17:28:21.782Z,9.80
2018-11-13T17:30:51.682Z,9.70
2018-11-13T17:33:21.854Z,9.70
2018-11-13T17:35:51.339Z,9.60
2018-11-13T17:38:20.993Z,9.70
2018-11-13T17:40:50.995Z,9.70
2018-11-13T17:43:20.591Z,9.70
2018-11-13T17:45:50.217Z,9.60
2018-11-13T17:48:20.169Z,9.60
2018-11-13T17:50:49.735Z,9.60
2018-11-13T17:53:19.394Z,9.50
2018-11-13T17:55:49.005Z,9.40
2018-11-13T17:58:18.577Z,9.40
2018-11-13T18:00:48.492Z,9.40
2018-11-13T18:03:18.605Z,9.40
2018-11-13T18:05:48.870Z,9.40
2018-11-13T18:08:18.397Z,9.40
2018-11-13T18:10:48.155Z,9.40
2018-11-13T18:13:17.807Z,9.40
2018-11-13T18:15:47.345Z,9.40
2018-11-13T18:18:16.885Z,9.40
2018-11-13T18:20:46.436Z,9.30
2018-11-13T18:23:16.049Z,9.30
2018-11-13T18:25:45.681Z,9.30
2018-11-13T18:28:15.451Z,9.30
2018-11-13T18:30:45.115Z,9.30
2018-11-13T18:33:15.968Z,9.30
2018-11-13T18:35:45.563Z,9.20
2018-11-13T18:38:15.742Z,9.30
2018-11-13T18:40:45.635Z,9.30
2018-11-13T18:43:14.943Z,9.30
2018-11-13T18:45:44.573Z,9.30
2018-11-13T18:48:14.328Z,9.30
2018-11-13T18:50:45.286Z,9.40
2018-11-13T18:53:14.871Z,9.40
2018-11-13T18:55:44.431Z,9.30
2018-11-13T18:58:14.000Z,9.30
2018-11-13T19:00:43.554Z,9.20
2018-11-13T19:03:13.725Z,9.20
2018-11-13T19:05:43.290Z,9.20
2018-11-13T19:08:12.882Z,9.10
2018-11-13T19:10:45.037Z,9.10
2018-11-13T19:13:16.187Z,9.10
2018-11-13T19:15:48.052Z,9.10
2018-11-13T19:18:18.445Z,9.10
2018-11-13T19:20:48.174Z,9.00
2018-11-13T19:23:18.134Z,9.00
2018-11-13T19:25:47.763Z,8.90
2018-11-13T19:28:17.481Z,8.90
2018-11-13T19:30:47.129Z,8.90
2018-11-13T19:33:16.836Z,8.90
2018-11-13T19:35:46.471Z,8.90
2018-11-13T19:38:16.026Z,8.90
2018-11-13T19:40:45.655Z,8.90
2018-11-13T19:43:16.016Z,8.90
2018-11-13T19:45:45.409Z,8.90
2018-11-13T19:48:15.013Z,8.80
2018-11-13T19:50:44.647Z,8.80
2018-11-13T19:53:14.338Z,8.70
2018-11-13T19:55:43.985Z,8.80
2018-11-13T19:58:13.600Z,8.80
2018-11-13T20:00:43.221Z,8.80
2018-11-13T20:03:13.048Z,8.80
2018-11-13T20:05:43.342Z,8.70
2018-11-13T20:08:13.645Z,8.80
2018-11-13T20:10:44.106Z,8.70
2018-11-13T20:13:15.105Z,8.70
2018-11-13T20:15:45.380Z,8.60
2018-11-13T20:18:15.788Z,8.60
2018-11-13T20:20:45.887Z,8.60
2018-11-13T20:23:16.187Z,8.70
2018-11-13T20:25:46.463Z,8.80
2018-11-13T20:28:16.929Z,8.90
2018-11-13T20:30:46.630Z,8.90
2018-11-13T20:33:16.413Z,8.80
2018-11-13T20:35:46.991Z,8.80
2018-11-13T20:38:17.848Z,8.80
2018-11-13T20:40:47.617Z,8.80
2018-11-13T20:43:17.435Z,8.80
2018-11-13T20:45:47.694Z,8.70
2018-11-13T20:48:17.545Z,8.80
2018-11-13T20:50:49.507Z,8.70
2018-11-13T20:53:20.135Z,8.70
2018-11-13T20:55:50.245Z,8.80
2018-11-13T20:58:21.625Z,8.70
2018-11-13T21:00:52.629Z,8.80
2018-11-13T21:03:24.743Z,8.80
2018-11-13T21:05:54.546Z,8.70
2018-11-13T21:08:25.833Z,8.70
2018-11-13T21:11:00.775Z,8.70
2018-11-13T21:13:30.134Z,8.70
2018-11-13T21:16:00.860Z,8.70
2018-11-13T21:18:30.490Z,8.70
2018-11-13T21:21:00.250Z,8.70
2018-11-13T21:23:29.829Z,8.70
2018-11-13T21:25:59.388Z,8.70
2018-11-13T21:28:28.940Z,8.70
2018-11-13T21:30:58.576Z,8.60
2018-11-13T21:33:28.219Z,8.60
2018-11-13T21:35:57.798Z,8.60
2018-11-13T21:38:27.738Z,8.70
2018-11-13T21:40:57.532Z,8.60
2018-11-13T21:43:27.233Z,8.70
2018-11-13T21:45:56.787Z,8.60
2018-11-13T21:48:26.339Z,8.50
2018-11-13T21:50:55.934Z,8.50
2018-11-13T21:53:25.519Z,8.60
2018-11-13T21:55:55.125Z,8.50
2018-11-13T21:58:24.873Z,8.50
2018-11-13T22:00:54.481Z,8.50
2018-11-13T22:03:24.053Z,8.50
2018-11-13T22:05:55.416Z,8.40
2018-11-13T22:08:25.039Z,8.40
2018-11-13T22:10:54.593Z,8.40
2018-11-13T22:13:24.088Z,8.40
2018-11-13T22:15:53.696Z,8.40
2018-11-13T22:18:23.241Z,8.30
2018-11-13T22:20:52.856Z,8.40
2018-11-13T22:23:22.771Z,8.30
2018-11-13T22:25:51.959Z,8.40
2018-11-13T22:28:25.921Z,8.30
2018-11-13T22:30:57.384Z,8.30
2018-11-13T22:33:30.101Z,8.30
2018-11-13T22:36:01.141Z,8.20
2018-11-13T22:38:30.908Z,8.30
2018-11-13T22:41:03.204Z,8.20
2018-11-13T22:43:37.547Z,8.20
2018-11-13T22:46:07.171Z,8.10
2018-11-13T22:48:36.767Z,8.10
2018-11-13T22:51:06.490Z,8.20
2018-11-13T22:53:36.013Z,8.20
2018-11-13T22:56:05.660Z,8.20
2018-11-13T22:58:35.230Z,8.20
2018-11-13T23:01:05.211Z,8.20
2018-11-13T23:03:34.810Z,8.20
2018-11-13T23:06:04.362Z,8.20
2018-11-13T23:08:33.976Z,8.30
2018-11-13T23:11:08.725Z,8.20
2018-11-13T23:13:38.400Z,8.30
2018-11-13T23:16:07.950Z,8.30
2018-11-13T23:18:37.709Z,8.20
2018-11-13T23:21:07.245Z,8.20
2018-11-13T23:23:36.832Z,8.10
2018-11-13T23:26:06.430Z,8.10
2018-11-13T23:28:35.915Z,8.00
2018-11-13T23:31:05.489Z,8.00
2018-11-13T23:33:35.009Z,8.00
2018-11-13T23:36:04.833Z,8.00
2018-11-13T23:38:34.476Z,8.00
2018-11-13T23:41:04.054Z,7.90
2018-11-13T23:43:33.576Z,7.80
2018-11-13T23:46:03.118Z,7.80
2018-11-13T23:48:32.850Z,7.80
2018-11-13T23:51:02.324Z,7.80
2018-11-13T23:53:31.897Z,7.70
2018-11-13T23:56:01.375Z,7.70
2018-11-13T23:58:30.916Z,7.70
